Time;durP1;ratioP1;P1;durP2;ratioP2;P2;SDS_P1;SDS_P2;PMS_P1;PMS_P2;Temp;Humidity;BMP_temperature;BMP_pressure;BME280_temperature;BME280_humidity;BME280_pressure;Samples;Min_cycle;Max_cycle;Signal;HPM_P1;HPM_P2
2021/01/02 00:00:55;;;;;;;500.45;277.85;;;;;;;;;;5078123;28;20078;-51
2021/01/02 00:03:24;;;;;;;528.17;301.40;;;;;;;;;;5078252;28;20062;-52
2021/01/02 00:05:57;;;;;;;545.10;311.08;;;;;;;;;;5078040;28;20025;-51
2021/01/02 00:08:24;;;;;;;491.33;276.83;;;;;;;;;;5077835;28;20050;-51
2021/01/02 00:10:59;;;;;;;519.60;294.42;;;;;;;;;;5077193;28;20032;-51
2021/01/02 00:13:31;;;;;;;481.42;271.58;;;;;;;;;;5059913;28;20016;-51
2021/01/02 00:16:00;;;;;;;499.75;281.25;;;;;;;;;;5076952;28;20020;-52
2021/01/02 00:18:36;;;;;;;488.58;271.08;;;;;;;;;;5074769;28;20028;-53
2021/01/02 00:21:02;;;;;;;462.90;260.80;;;;;;;;;;5075062;28;20518;-49
2021/01/02 00:23:28;;;;;;;455.50;255.32;;;;;;;;;;5074563;28;20029;-51
2021/01/02 00:26:20;;;;;;;455.55;249.80;;;;;;;;;;5074873;28;20392;-51
2021/01/02 00:28:46;;;;;;;420.30;228.98;;;;;;;;;;5070395;28;20112;-52
2021/01/02 00:31:12;;;;;;;463.23;254.13;;;;;;;;;;5073356;28;20476;-50
2021/01/02 00:33:57;;;;;;;405.35;225.27;;;;;;;;;;5077979;28;20070;-51
2021/01/02 00:36:46;;;;;;;378.02;206.88;;;;;;;;;;5074540;28;20024;-51
2021/01/02 00:39:16;;;;;;;321.15;168.93;;;;;;;;;;4990183;28;20411;-50
2021/01/02 00:41:44;;;;;;;336.73;172.30;;;;;;;;;;4992083;28;20104;-49
2021/01/02 00:44:14;;;;;;;293.17;151.68;;;;;;;;;;4991954;28;20101;-50
2021/01/02 00:46:40;;;;;;;255.48;133.35;;;;;;;;;;4981092;28;20387;-51
2021/01/02 00:49:09;;;;;;;278.48;144.27;;;;;;;;;;4987983;28;20037;-51
2021/01/02 00:51:40;;;;;;;206.30;109.18;;;;;;;;;;4990947;28;20514;-50
2021/01/02 00:54:28;;;;;;;204.90;105.65;;;;;;;;;;4992487;28;20787;-50
2021/01/02 00:57:04;;;;;;;256.75;131.05;;;;;;;;;;4931909;29;20517;-49
2021/01/02 00:59:36;;;;;;;256.13;131.27;;;;;;;;;;4931526;29;20168;-49
2021/01/02 01:02:14;;;;;;;235.05;121.75;;;;;;;;;;4931874;29;20102;-51
2021/01/02 01:04:46;;;;;;;244.18;125.45;;;;;;;;;;4931573;29;20067;-50
2021/01/02 01:07:18;;;;;;;215.90;115.40;;;;;;;;;;4933312;29;20126;-49
2021/01/02 01:09:50;;;;;;;206.23;104.18;;;;;;;;;;4931061;29;20040;-49
2021/01/02 01:12:18;;;;;;;196.50;100.85;;;;;;;;;;4916998;29;20561;-50
2021/01/02 01:14:44;;;;;;;187.65;94.60;;;;;;;;;;4932077;29;20123;-50
2021/01/02 01:17:14;;;;;;;200.63;100.70;;;;;;;;;;4965386;28;20062;-51
2021/01/02 01:19:42;;;;;;;169.85;86.53;;;;;;;;;;4969455;28;20103;-50
2021/01/02 01:22:10;;;;;;;161.65;86.03;;;;;;;;;;4961078;28;20038;-52
2021/01/02 01:24:43;;;;;;;159.02;84.78;;;;;;;;;;4958668;28;20055;-52
2021/01/02 01:27:21;;;;;;;137.63;72.13;;;;;;;;;;4975053;28;20051;-52
2021/01/02 01:29:49;;;;;;;106.78;54.63;;;;;;;;;;4983239;28;20037;-52
2021/01/02 01:32:19;;;;;;;151.50;76.68;;;;;;;;;;4984652;28;20035;-52
2021/01/02 01:34:46;;;;;;;132.13;66.78;;;;;;;;;;5058890;28;20032;-52
2021/01/02 01:37:14;;;;;;;119.20;60.20;;;;;;;;;;5073574;28;20028;-52
2021/01/02 01:39:41;;;;;;;110.10;55.28;;;;;;;;;;5073589;28;20090;-57
2021/01/02 01:42:07;;;;;;;80.85;41.45;;;;;;;;;;5072045;28;20112;-57
2021/01/02 01:44:43;;;;;;;74.30;38.60;;;;;;;;;;5073334;28;20016;-54
2021/01/02 01:47:13;;;;;;;71.78;38.90;;;;;;;;;;5071665;28;20458;-53
2021/01/02 01:49:39;;;;;;;64.45;33.70;;;;;;;;;;5072816;28;20353;-53
2021/01/02 01:52:12;;;;;;;61.50;32.70;;;;;;;;;;5073061;28;20027;-52
2021/01/02 01:54:57;;;;;;;83.43;43.15;;;;;;;;;;5072868;28;20024;-53
2021/01/02 01:57:24;;;;;;;84.72;42.58;;;;;;;;;;5057825;28;20017;-56
2021/01/02 02:00:08;;;;;;;73.45;39.88;;;;;;;;;;5056537;28;20475;-55
2021/01/02 02:02:40;;;;;;;75.28;38.47;;;;;;;;;;5052366;28;20036;-51
2021/01/02 02:05:07;;;;;;;70.85;36.22;;;;;;;;;;5053970;28;20144;-52
2021/01/02 02:07:41;;;;;;;70.40;36.83;;;;;;;;;;5053754;28;20029;-52
2021/01/02 02:10:08;;;;;;;66.85;35.33;;;;;;;;;;5055585;28;20025;-52
2021/01/02 02:12:34;;;;;;;79.10;40.85;;;;;;;;;;5051013;28;20510;-52
2021/01/02 02:15:00;;;;;;;91.28;46.20;;;;;;;;;;5056907;28;20029;-52
2021/01/02 02:17:28;;;;;;;88.90;45.03;;;;;;;;;;5052010;28;20028;-53
2021/01/02 02:19:58;;;;;;;70.72;37.13;;;;;;;;;;5053053;28;20059;-52
2021/01/02 02:22:27;;;;;;;71.45;37.30;;;;;;;;;;5054754;28;20017;-53
2021/01/02 02:24:55;;;;;;;77.75;40.58;;;;;;;;;;5064511;28;20111;-53
2021/01/02 02:27:28;;;;;;;71.72;38.08;;;;;;;;;;5058795;28;20411;-53
2021/01/02 02:29:57;;;;;;;61.45;32.42;;;;;;;;;;5072589;28;20444;-53
2021/01/02 02:32:24;;;;;;;60.75;32.42;;;;;;;;;;5058734;28;20028;-53
2021/01/02 02:34:52;;;;;;;34.97;19.55;;;;;;;;;;5062850;28;20515;-53
2021/01/02 02:37:18;;;;;;;27.88;14.80;;;;;;;;;;5072101;28;20024;-54
2021/01/02 02:39:45;;;;;;;21.08;11.45;;;;;;;;;;5072499;28;20078;-53
2021/01/02 02:42:11;;;;;;;19.60;10.00;;;;;;;;;;5068419;28;20115;-54
2021/01/02 02:44:38;;;;;;;17.95;9.70;;;;;;;;;;5072096;28;20020;-54
2021/01/02 02:47:04;;;;;;;19.70;10.32;;;;;;;;;;5072040;28;20028;-53
2021/01/02 02:49:32;;;;;;;25.98;13.48;;;;;;;;;;5071965;28;20024;-53
2021/01/02 02:52:01;;;;;;;43.03;22.90;;;;;;;;;;5059543;28;20400;-53
2021/01/02 02:54:27;;;;;;;60.85;32.90;;;;;;;;;;5070938;28;20022;-52
2021/01/02 02:56:53;;;;;;;54.30;28.80;;;;;;;;;;5071712;28;20052;-53
2021/01/02 02:59:19;;;;;;;54.60;27.58;;;;;;;;;;5071694;28;20025;-53
2021/01/02 03:01:48;;;;;;;54.50;28.85;;;;;;;;;;5072132;28;20077;-53
2021/01/02 03:04:15;;;;;;;55.83;28.25;;;;;;;;;;5071924;28;20032;-52
2021/01/02 03:06:42;;;;;;;53.53;28.30;;;;;;;;;;5072101;28;20020;-53
2021/01/02 03:09:08;;;;;;;48.47;25.88;;;;;;;;;;5071987;28;20025;-52
2021/01/02 03:11:35;;;;;;;53.80;26.20;;;;;;;;;;5070696;28;20032;-51
2021/01/02 03:14:01;;;;;;;46.47;25.75;;;;;;;;;;5071845;28;20104;-53
2021/01/02 03:16:27;;;;;;;47.50;26.58;;;;;;;;;;5071997;28;20016;-52
2021/01/02 03:18:53;;;;;;;49.65;25.45;;;;;;;;;;5071736;28;20020;-51
2021/01/02 03:21:19;;;;;;;44.80;24.77;;;;;;;;;;5071799;28;20029;-52
2021/01/02 03:23:46;;;;;;;42.78;23.20;;;;;;;;;;5070901;28;20028;-52
2021/01/02 03:26:13;;;;;;;45.63;25.02;;;;;;;;;;5057597;28;20052;-53
2021/01/02 03:28:39;;;;;;;55.45;29.08;;;;;;;;;;5070714;28;20027;-51
2021/01/02 03:31:06;;;;;;;51.67;26.63;;;;;;;;;;5071850;28;20035;-52
2021/01/02 03:33:32;;;;;;;49.90;27.00;;;;;;;;;;5071799;28;20066;-52
2021/01/02 03:36:02;;;;;;;50.20;27.25;;;;;;;;;;5071883;28;20024;-52
2021/01/02 03:38:33;;;;;;;50.65;27.20;;;;;;;;;;5071786;28;20107;-53
2021/01/02 03:40:59;;;;;;;48.53;26.30;;;;;;;;;;5070962;28;20035;-54
2021/01/02 03:43:25;;;;;;;58.78;31.15;;;;;;;;;;5071694;28;20056;-53
2021/01/02 03:45:52;;;;;;;86.47;46.08;;;;;;;;;;5071718;28;20048;-53
2021/01/02 03:48:18;;;;;;;99.35;52.58;;;;;;;;;;5071699;28;20103;-53
2021/01/02 03:50:44;;;;;;;109.05;58.13;;;;;;;;;;5071688;28;20473;-52
2021/01/02 03:53:10;;;;;;;111.15;58.75;;;;;;;;;;5073603;28;20060;-53
2021/01/02 03:55:36;;;;;;;109.75;58.78;;;;;;;;;;5074954;28;20020;-51
2021/01/02 03:58:02;;;;;;;112.10;57.00;;;;;;;;;;5075473;28;20020;-54
2021/01/02 04:00:28;;;;;;;105.95;55.17;;;;;;;;;;5075319;28;20586;-54
2021/01/02 04:02:55;;;;;;;92.57;49.67;;;;;;;;;;5075597;28;20391;-52
2021/01/02 04:05:21;;;;;;;76.35;40.60;;;;;;;;;;5074487;28;20111;-53
2021/01/02 04:07:47;;;;;;;74.50;39.33;;;;;;;;;;5075099;28;20016;-54
2021/01/02 04:10:13;;;;;;;80.85;42.50;;;;;;;;;;5073752;28;20130;-53
2021/01/02 04:12:39;;;;;;;76.00;40.38;;;;;;;;;;5074268;28;20038;-53
2021/01/02 04:15:06;;;;;;;80.70;41.00;;;;;;;;;;5075271;28;20017;-52
2021/01/02 04:17:32;;;;;;;81.38;40.38;;;;;;;;;;5074861;28;20024;-53
2021/01/02 04:19:58;;;;;;;86.07;43.10;;;;;;;;;;5075180;28;20032;-52
2021/01/02 04:22:24;;;;;;;82.00;41.80;;;;;;;;;;5074874;28;20032;-53
2021/01/02 04:24:50;;;;;;;84.10;45.17;;;;;;;;;;5074311;28;20049;-53
2021/01/02 04:27:17;;;;;;;86.85;43.38;;;;;;;;;;5063056;28;20031;-51
2021/01/02 04:29:43;;;;;;;86.80;40.53;;;;;;;;;;5074924;28;20496;-53
2021/01/02 04:32:09;;;;;;;83.43;44.53;;;;;;;;;;5074616;28;20151;-53
2021/01/02 04:34:35;;;;;;;81.70;44.03;;;;;;;;;;5074264;28;20028;-53
2021/01/02 04:37:01;;;;;;;83.18;44.95;;;;;;;;;;5074341;28;20020;-53
2021/01/02 04:39:27;;;;;;;81.50;41.90;;;;;;;;;;5081683;28;20484;-52
2021/01/02 04:41:56;;;;;;;77.43;40.20;;;;;;;;;;5077293;28;20488;-53
2021/01/02 04:44:22;;;;;;;67.07;35.78;;;;;;;;;;5074712;28;20507;-53
2021/01/02 04:46:49;;;;;;;49.70;27.42;;;;;;;;;;5074540;28;20043;-53
2021/01/02 04:49:15;;;;;;;61.20;33.30;;;;;;;;;;5074726;28;20032;-52
2021/01/02 04:51:41;;;;;;;63.03;33.42;;;;;;;;;;5074559;28;20361;-52
2021/01/02 04:54:08;;;;;;;53.80;28.25;;;;;;;;;;5073966;28;20384;-53
2021/01/02 04:56:34;;;;;;;45.63;26.00;;;;;;;;;;5073960;28;20041;-53
2021/01/02 04:59:08;;;;;;;48.47;24.80;;;;;;;;;;5074336;28;20017;-52
2021/01/02 05:01:36;;;;;;;41.30;22.00;;;;;;;;;;5074398;28;20016;-53
2021/01/02 05:04:02;;;;;;;35.78;19.55;;;;;;;;;;5073657;28;20411;-53
2021/01/02 05:06:28;;;;;;;35.80;18.98;;;;;;;;;;5074288;28;20032;-53
2021/01/02 05:08:55;;;;;;;31.38;17.38;;;;;;;;;;5073256;28;20043;-53
2021/01/02 05:11:21;;;;;;;32.55;17.52;;;;;;;;;;5073683;28;20130;-53
2021/01/02 05:13:47;;;;;;;34.42;18.55;;;;;;;;;;5074208;28;20021;-53
2021/01/02 05:16:18;;;;;;;34.20;18.02;;;;;;;;;;5073891;28;20028;-52
2021/01/02 05:18:54;;;;;;;32.70;18.02;;;;;;;;;;5074174;28;20020;-53
2021/01/02 05:21:20;;;;;;;44.10;21.45;;;;;;;;;;5073725;28;20059;-52
2021/01/02 05:24:06;;;;;;;40.47;20.33;;;;;;;;;;5072736;28;20051;-51
2021/01/02 05:26:33;;;;;;;35.55;18.40;;;;;;;;;;5060517;28;20029;-53
2021/01/02 05:29:14;;;;;;;29.63;14.48;;;;;;;;;;5073902;28;20078;-53
2021/01/02 05:31:41;;;;;;;29.05;16.25;;;;;;;;;;5073994;28;20045;-53
2021/01/02 05:34:08;;;;;;;36.63;19.08;;;;;;;;;;5072984;28;20020;-53
2021/01/02 05:36:34;;;;;;;63.65;34.70;;;;;;;;;;5073552;28;20021;-52
2021/01/02 05:39:00;;;;;;;66.10;35.85;;;;;;;;;;5072263;28;20020;-51
2021/01/02 05:41:27;;;;;;;84.57;44.83;;;;;;;;;;5073505;28;20021;-51
2021/01/02 05:43:53;;;;;;;105.90;53.30;;;;;;;;;;5073466;28;20522;-52
2021/01/02 05:46:22;;;;;;;124.25;63.60;;;;;;;;;;5073492;28;20032;-52
2021/01/02 05:48:48;;;;;;;107.13;57.90;;;;;;;;;;5073241;28;20024;-51
2021/01/02 05:51:21;;;;;;;109.60;52.95;;;;;;;;;;5073155;28;20127;-50
2021/01/02 05:53:49;;;;;;;79.63;41.90;;;;;;;;;;5071465;28;20074;-51
2021/01/02 05:56:17;;;;;;;66.97;34.78;;;;;;;;;;5073213;28;20042;-52
2021/01/02 05:58:43;;;;;;;47.38;25.52;;;;;;;;;;5073200;28;20020;-51
2021/01/02 06:01:09;;;;;;;39.38;21.50;;;;;;;;;;5068445;28;20025;-52
2021/01/02 06:03:36;;;;;;;44.90;23.48;;;;;;;;;;5052693;28;20025;-52
2021/01/02 06:06:04;;;;;;;91.60;42.28;;;;;;;;;;5056416;28;20035;-52
2021/01/02 06:08:40;;;;;;;101.32;45.78;;;;;;;;;;5070873;28;20031;-52
2021/01/02 06:11:10;;;;;;;62.38;31.30;;;;;;;;;;5058628;28;20032;-51
2021/01/02 06:13:37;;;;;;;61.03;30.58;;;;;;;;;;5072858;28;20039;-52
2021/01/02 06:16:05;;;;;;;61.42;31.52;;;;;;;;;;5071809;28;20083;-51
2021/01/02 06:18:33;;;;;;;71.60;36.60;;;;;;;;;;5063543;28;20492;-52
2021/01/02 06:21:03;;;;;;;51.58;29.48;;;;;;;;;;5067118;28;20056;-51
2021/01/02 06:23:30;;;;;;;52.78;27.35;;;;;;;;;;5081514;28;20492;-51
2021/01/02 06:25:56;;;;;;;72.00;36.08;;;;;;;;;;5072304;28;20032;-51
2021/01/02 06:28:26;;;;;;;60.20;31.25;;;;;;;;;;5072239;28;20025;-52
2021/01/02 06:31:02;;;;;;;34.25;18.27;;;;;;;;;;5072542;28;20036;-52
2021/01/02 06:33:28;;;;;;;26.48;13.27;;;;;;;;;;5071791;28;20021;-52
2021/01/02 06:35:55;;;;;;;23.27;12.30;;;;;;;;;;5060713;28;20489;-51
2021/01/02 06:38:21;;;;;;;18.85;10.77;;;;;;;;;;5069822;28;20446;-51
2021/01/02 06:40:48;;;;;;;19.67;9.75;;;;;;;;;;5072106;28;20375;-51
2021/01/02 06:43:15;;;;;;;24.02;11.27;;;;;;;;;;5072315;28;20021;-53
2021/01/02 06:45:44;;;;;;;18.70;9.85;;;;;;;;;;5072042;28;20028;-49
2021/01/02 06:48:25;;;;;;;20.00;9.60;;;;;;;;;;5072029;28;20209;-50
2021/01/02 06:50:51;;;;;;;19.20;9.88;;;;;;;;;;5062963;28;20036;-52
2021/01/02 06:53:19;;;;;;;19.85;9.15;;;;;;;;;;5064578;28;20025;-51
2021/01/02 06:55:46;;;;;;;29.95;17.13;;;;;;;;;;5054338;28;20033;-50
2021/01/02 06:58:16;;;;;;;39.03;22.42;;;;;;;;;;5055500;28;20036;-52
2021/01/02 07:00:42;;;;;;;34.63;19.48;;;;;;;;;;5060087;28;20050;-52
2021/01/02 07:03:27;;;;;;;27.63;14.88;;;;;;;;;;5072287;28;20372;-52
2021/01/02 07:05:53;;;;;;;28.65;15.32;;;;;;;;;;5070754;28;20016;-53
2021/01/02 07:08:37;;;;;;;29.33;15.82;;;;;;;;;;5071425;28;20115;-53
2021/01/02 07:11:22;;;;;;;29.95;15.77;;;;;;;;;;5057734;28;20032;-52
2021/01/02 07:13:48;;;;;;;24.85;13.40;;;;;;;;;;5071945;28;20503;-53
2021/01/02 07:16:32;;;;;;;26.25;14.77;;;;;;;;;;5072120;28;20100;-53
2021/01/02 07:18:58;;;;;;;22.67;13.80;;;;;;;;;;5072028;28;20017;-52
2021/01/02 07:21:37;;;;;;;21.23;12.20;;;;;;;;;;5068955;28;20031;-52
2021/01/02 07:24:22;;;;;;;24.52;12.80;;;;;;;;;;5071078;28;20056;-52
2021/01/02 07:26:48;;;;;;;17.05;10.18;;;;;;;;;;5071887;28;20031;-52
2021/01/02 07:29:20;;;;;;;17.65;10.55;;;;;;;;;;5076022;28;20028;-51
2021/01/02 07:31:47;;;;;;;17.45;10.40;;;;;;;;;;5075819;28;20059;-51
2021/01/02 07:34:19;;;;;;;22.15;12.95;;;;;;;;;;5075755;28;20023;-52
2021/01/02 07:36:46;;;;;;;37.40;21.02;;;;;;;;;;5076018;28;20061;-51
2021/01/02 07:39:13;;;;;;;37.05;21.35;;;;;;;;;;5075379;28;20012;-51
2021/01/02 07:41:40;;;;;;;46.63;28.20;;;;;;;;;;5075530;28;20017;-53
2021/01/02 07:44:06;;;;;;;55.88;32.28;;;;;;;;;;5073452;28;20021;-53
2021/01/02 07:46:33;;;;;;;63.95;40.67;;;;;;;;;;5075830;28;20024;-53
2021/01/02 07:48:59;;;;;;;56.05;34.38;;;;;;;;;;5075290;28;20039;-53
2021/01/02 07:51:28;;;;;;;137.48;68.30;;;;;;;;;;5074568;28;20109;-52
2021/01/02 07:53:54;;;;;;;204.02;127.72;;;;;;;;;;5074871;28;20095;-52
2021/01/02 07:56:33;;;;;;;102.57;63.17;;;;;;;;;;5073562;28;20024;-57
2021/01/02 07:59:17;;;;;;;235.32;130.07;;;;;;;;;;5068945;28;20092;-52
2021/01/02 08:01:44;;;;;;;202.07;113.55;;;;;;;;;;5070500;28;20029;-52
2021/01/02 08:04:10;;;;;;;113.63;60.92;;;;;;;;;;5075640;28;20096;-53
2021/01/02 08:06:43;;;;;;;107.10;59.55;;;;;;;;;;5057313;28;20024;-53
2021/01/02 08:09:09;;;;;;;142.35;77.38;;;;;;;;;;5075152;28;20368;-51
2021/01/02 08:11:35;;;;;;;59.92;35.72;;;;;;;;;;5074938;28;20094;-52
2021/01/02 08:14:01;;;;;;;25.20;15.30;;;;;;;;;;5074882;28;20099;-54
2021/01/02 08:16:27;;;;;;;24.70;13.98;;;;;;;;;;5075311;28;20035;-53
2021/01/02 08:19:04;;;;;;;12.38;8.18;;;;;;;;;;5074844;28;20021;-54
2021/01/02 08:21:30;;;;;;;18.63;9.35;;;;;;;;;;5075185;28;20048;-52
2021/01/02 08:23:56;;;;;;;15.05;8.30;;;;;;;;;;5074341;28;20084;-52
2021/01/02 08:26:22;;;;;;;16.95;9.30;;;;;;;;;;5075031;28;20483;-51
2021/01/02 08:28:48;;;;;;;16.60;9.35;;;;;;;;;;5074707;28;20383;-51
2021/01/02 08:31:16;;;;;;;15.95;8.60;;;;;;;;;;5074751;28;20036;-52
2021/01/02 08:33:42;;;;;;;18.13;8.73;;;;;;;;;;5073187;28;20031;-53
2021/01/02 08:36:13;;;;;;;13.32;8.15;;;;;;;;;;5073570;28;20123;-52
2021/01/02 08:38:39;;;;;;;19.25;10.88;;;;;;;;;;5073502;28;20025;-54
2021/01/02 08:41:05;;;;;;;17.33;8.80;;;;;;;;;;5074204;28;20111;-54
2021/01/02 08:43:31;;;;;;;17.17;9.60;;;;;;;;;;5074446;28;20063;-56
2021/01/02 08:46:01;;;;;;;17.83;9.48;;;;;;;;;;5074399;28;20073;-54
2021/01/02 08:48:28;;;;;;;15.20;8.88;;;;;;;;;;5056450;28;20448;-55
2021/01/02 08:50:54;;;;;;;16.98;10.07;;;;;;;;;;5074325;28;20060;-55
2021/01/02 08:53:24;;;;;;;16.58;9.85;;;;;;;;;;5065228;28;20037;-54
2021/01/02 08:55:50;;;;;;;17.17;9.75;;;;;;;;;;5067462;28;20054;-52
2021/01/02 08:58:29;;;;;;;16.02;9.63;;;;;;;;;;5074119;28;20028;-52
2021/01/02 09:00:57;;;;;;;13.75;8.07;;;;;;;;;;5073876;28;20043;-54
2021/01/02 09:03:23;;;;;;;15.63;9.00;;;;;;;;;;5073709;28;20046;-53
2021/01/02 09:05:49;;;;;;;15.25;8.98;;;;;;;;;;5074270;28;20050;-54
2021/01/02 09:08:19;;;;;;;15.07;8.60;;;;;;;;;;5074025;28;20021;-52
2021/01/02 09:10:45;;;;;;;12.00;8.07;;;;;;;;;;5073956;28;20040;-52
2021/01/02 09:13:24;;;;;;;18.05;9.80;;;;;;;;;;5074110;28;20374;-54
2021/01/02 09:15:57;;;;;;;18.60;10.65;;;;;;;;;;5061723;28;20044;-52
2021/01/02 09:18:30;;;;;;;16.73;9.85;;;;;;;;;;5073503;28;20021;-55
2021/01/02 09:20:56;;;;;;;15.88;10.25;;;;;;;;;;5071953;28;20160;-53
2021/01/02 09:23:32;;;;;;;17.20;9.90;;;;;;;;;;5073155;28;20109;-50
2021/01/02 09:25:58;;;;;;;17.38;10.60;;;;;;;;;;5066793;28;20041;-53
2021/01/02 09:28:24;;;;;;;18.10;10.05;;;;;;;;;;5066409;28;20067;-53
2021/01/02 09:30:50;;;;;;;12.50;7.97;;;;;;;;;;5073047;28;20104;-54
2021/01/02 09:33:17;;;;;;;13.80;7.93;;;;;;;;;;5073075;28;20046;-51
2021/01/02 09:35:44;;;;;;;13.95;8.35;;;;;;;;;;5073337;28;20534;-52
2021/01/02 09:38:10;;;;;;;13.32;7.63;;;;;;;;;;5073395;28;20024;-56
2021/01/02 09:40:38;;;;;;;11.82;8.23;;;;;;;;;;5072964;28;20521;-56
2021/01/02 09:43:08;;;;;;;15.25;8.25;;;;;;;;;;5073021;28;20492;-57
2021/01/02 09:45:34;;;;;;;12.63;7.80;;;;;;;;;;5064627;28;20036;-51
2021/01/02 09:48:00;;;;;;;11.70;7.22;;;;;;;;;;5060085;28;20027;-51
2021/01/02 09:50:26;;;;;;;13.25;7.57;;;;;;;;;;5065214;28;20037;-51
2021/01/02 09:52:53;;;;;;;11.25;6.72;;;;;;;;;;5070452;28;20073;-56
2021/01/02 09:55:19;;;;;;;12.15;7.25;;;;;;;;;;5081833;28;20074;-53
2021/01/02 09:57:48;;;;;;;12.55;8.13;;;;;;;;;;5072947;28;20484;-58
2021/01/02 10:00:14;;;;;;;12.00;8.50;;;;;;;;;;5072220;28;20092;-54
2021/01/02 10:02:41;;;;;;;12.43;8.45;;;;;;;;;;5070897;28;20051;-54
2021/01/02 10:05:07;;;;;;;12.23;8.02;;;;;;;;;;5072739;28;20031;-54
2021/01/02 10:07:33;;;;;;;13.98;8.80;;;;;;;;;;5072956;28;20060;-57
2021/01/02 10:09:59;;;;;;;13.65;8.65;;;;;;;;;;5072504;28;20056;-52
2021/01/02 10:12:25;;;;;;;11.75;8.70;;;;;;;;;;5072722;28;20036;-55
2021/01/02 10:14:51;;;;;;;35.20;24.85;;;;;;;;;;5072964;28;20368;-53
2021/01/02 10:17:17;;;;;;;25.73;18.95;;;;;;;;;;5071921;28;20021;-54
2021/01/02 10:19:47;;;;;;;19.40;14.52;;;;;;;;;;5072749;28;20035;-52
2021/01/02 10:22:15;;;;;;;28.05;22.55;;;;;;;;;;5072368;28;20032;-54
2021/01/02 10:24:41;;;;;;;16.33;13.13;;;;;;;;;;5071948;28;20040;-53
2021/01/02 10:27:07;;;;;;;30.00;20.75;;;;;;;;;;5072352;28;20154;-54
2021/01/02 10:29:36;;;;;;;20.42;16.30;;;;;;;;;;5072260;28;20016;-54
2021/01/02 10:32:02;;;;;;;21.25;16.58;;;;;;;;;;5069996;28;20115;-54
2021/01/02 10:34:28;;;;;;;19.70;15.50;;;;;;;;;;5070775;28;20066;-54
2021/01/02 10:36:55;;;;;;;25.17;18.15;;;;;;;;;;5072009;28;20411;-56
2021/01/02 10:39:21;;;;;;;28.40;19.98;;;;;;;;;;5072305;28;20052;-53
2021/01/02 10:41:48;;;;;;;29.60;19.60;;;;;;;;;;5072412;28;20100;-57
2021/01/02 10:44:14;;;;;;;19.45;13.30;;;;;;;;;;5071980;28;20056;-55
2021/01/02 10:46:44;;;;;;;21.40;15.32;;;;;;;;;;5070581;28;20400;-56
2021/01/02 10:49:11;;;;;;;29.05;19.60;;;;;;;;;;5072551;28;20095;-57
2021/01/02 10:51:39;;;;;;;29.30;21.33;;;;;;;;;;5071253;28;20059;-54
2021/01/02 10:54:05;;;;;;;27.17;17.73;;;;;;;;;;5060497;28;20098;-51
2021/01/02 10:56:31;;;;;;;19.13;14.05;;;;;;;;;;5053127;28;20069;-53
2021/01/02 10:58:57;;;;;;;20.50;15.10;;;;;;;;;;5051579;28;20400;-53
2021/01/02 11:01:23;;;;;;;21.65;15.35;;;;;;;;;;5052850;28;20033;-54
2021/01/02 11:03:49;;;;;;;18.30;12.90;;;;;;;;;;5054556;28;20092;-53
2021/01/02 11:06:16;;;;;;;19.40;12.75;;;;;;;;;;5057534;28;20068;-54
2021/01/02 11:08:42;;;;;;;13.95;10.40;;;;;;;;;;5061083;28;20479;-53
2021/01/02 11:11:08;;;;;;;12.82;9.32;;;;;;;;;;5052945;28;20060;-55
2021/01/02 11:13:36;;;;;;;11.73;8.88;;;;;;;;;;5054782;28;20036;-54
2021/01/02 11:16:02;;;;;;;13.60;9.00;;;;;;;;;;5050521;28;20090;-54
2021/01/02 11:18:29;;;;;;;15.07;11.00;;;;;;;;;;5053345;28;20021;-55
2021/01/02 11:20:55;;;;;;;18.70;11.55;;;;;;;;;;5071912;28;20021;-56
2021/01/02 11:23:22;;;;;;;11.57;8.45;;;;;;;;;;5071745;28;20035;-57
2021/01/02 11:25:48;;;;;;;9.98;6.32;;;;;;;;;;5071478;28;20068;-53
2021/01/02 11:28:14;;;;;;;10.13;8.05;;;;;;;;;;5071856;28;20044;-54
2021/01/02 11:30:40;;;;;;;11.43;6.97;;;;;;;;;;5071506;28;20104;-53
2021/01/02 11:33:06;;;;;;;6.10;4.90;;;;;;;;;;5070926;28;20029;-53
2021/01/02 11:35:33;;;;;;;6.65;5.32;;;;;;;;;;5071808;28;20021;-56
2021/01/02 11:37:59;;;;;;;7.93;6.00;;;;;;;;;;5071870;28;20023;-55
2021/01/02 11:40:25;;;;;;;9.40;6.00;;;;;;;;;;5071680;28;20032;-54
2021/01/02 11:42:54;;;;;;;7.55;5.22;;;;;;;;;;5071478;28;20476;-54
2021/01/02 11:45:22;;;;;;;9.95;6.53;;;;;;;;;;5071317;28;20040;-54
2021/01/02 11:47:51;;;;;;;9.35;6.82;;;;;;;;;;5071313;28;20345;-58
2021/01/02 11:50:17;;;;;;;9.07;4.93;;;;;;;;;;5071257;28;20024;-56
2021/01/02 11:52:43;;;;;;;6.70;5.30;;;;;;;;;;5071685;28;20035;-54
2021/01/02 11:55:10;;;;;;;6.38;4.68;;;;;;;;;;5064658;28;20035;-53
2021/01/02 11:57:36;;;;;;;4.90;4.18;;;;;;;;;;5051992;28;20055;-52
2021/01/02 12:00:04;;;;;;;7.15;4.93;;;;;;;;;;5052020;28;20449;-55
2021/01/02 12:02:30;;;;;;;7.35;5.68;;;;;;;;;;5053290;28;20020;-53
2021/01/02 12:04:56;;;;;;;10.52;6.03;;;;;;;;;;5055550;28;20070;-54
2021/01/02 12:07:22;;;;;;;6.97;5.55;;;;;;;;;;5053142;28;20021;-56
2021/01/02 12:09:48;;;;;;;9.88;5.95;;;;;;;;;;5053017;28;20041;-55
2021/01/02 12:12:14;;;;;;;6.43;4.57;;;;;;;;;;5053713;28;20029;-56
2021/01/02 12:14:40;;;;;;;4.78;3.40;;;;;;;;;;5058042;28;20028;-55
2021/01/02 12:17:12;;;;;;;5.47;4.25;;;;;;;;;;5057422;28;20067;-56
2021/01/02 12:19:38;;;;;;;4.93;3.10;;;;;;;;;;5062101;28;20083;-55
2021/01/02 12:22:05;;;;;;;6.15;3.40;;;;;;;;;;5056585;28;20506;-55
2021/01/02 12:24:32;;;;;;;6.43;4.10;;;;;;;;;;5054336;28;20044;-53
2021/01/02 12:27:00;;;;;;;10.38;5.15;;;;;;;;;;5067262;28;20033;-55
2021/01/02 12:29:26;;;;;;;5.93;2.88;;;;;;;;;;5066859;28;20029;-56
2021/01/02 12:31:54;;;;;;;4.28;3.38;;;;;;;;;;5064253;28;20672;-57
2021/01/02 12:34:30;;;;;;;6.03;4.40;;;;;;;;;;5070226;28;20082;-56
2021/01/02 12:36:57;;;;;;;7.72;4.80;;;;;;;;;;5070360;28;20025;-54
2021/01/02 12:39:27;;;;;;;6.65;4.43;;;;;;;;;;5052603;28;20453;-55
2021/01/02 12:41:54;;;;;;;6.15;3.80;;;;;;;;;;5072498;28;20036;-56
2021/01/02 12:44:23;;;;;;;6.10;4.10;;;;;;;;;;5074059;28;20050;-56
2021/01/02 12:46:53;;;;;;;9.48;5.78;;;;;;;;;;5073802;28;20042;-55
2021/01/02 12:49:21;;;;;;;9.07;4.70;;;;;;;;;;5074044;28;20039;-54
2021/01/02 12:51:47;;;;;;;10.10;6.32;;;;;;;;;;5069754;28;20083;-52
2021/01/02 12:54:14;;;;;;;8.63;5.30;;;;;;;;;;5073217;28;20112;-53
2021/01/02 12:56:43;;;;;;;8.10;4.55;;;;;;;;;;5064212;28;20028;-53
2021/01/02 12:59:09;;;;;;;7.10;4.55;;;;;;;;;;5073999;28;20490;-55
2021/01/02 13:01:39;;;;;;;7.15;5.57;;;;;;;;;;5067938;28;20478;-55
2021/01/02 13:04:06;;;;;;;5.75;4.18;;;;;;;;;;5073086;28;20056;-53
2021/01/02 13:06:32;;;;;;;7.50;4.82;;;;;;;;;;5066328;28;20579;-54
2021/01/02 13:08:59;;;;;;;8.02;5.40;;;;;;;;;;5073260;28;20032;-53
2021/01/02 13:11:25;;;;;;;9.02;5.90;;;;;;;;;;5073034;28;20044;-56
2021/01/02 13:13:51;;;;;;;5.07;3.28;;;;;;;;;;5071690;28;20028;-54
2021/01/02 13:16:17;;;;;;;7.85;5.45;;;;;;;;;;5072244;28;20109;-55
2021/01/02 13:18:43;;;;;;;12.95;8.65;;;;;;;;;;5058197;28;20094;-56
2021/01/02 13:21:09;;;;;;;7.82;5.90;;;;;;;;;;5055141;28;20040;-56
2021/01/02 13:23:38;;;;;;;11.25;8.70;;;;;;;;;;5067691;28;20029;-53
2021/01/02 13:26:04;;;;;;;7.63;5.88;;;;;;;;;;5063567;28;20037;-55
2021/01/02 13:28:30;;;;;;;10.60;7.78;;;;;;;;;;5068772;28;20022;-54
2021/01/02 13:30:57;;;;;;;8.57;6.03;;;;;;;;;;5061623;28;20052;-56
2021/01/02 13:33:23;;;;;;;7.43;5.40;;;;;;;;;;5052703;28;20032;-52
2021/01/02 13:35:49;;;;;;;7.32;4.80;;;;;;;;;;5070646;28;20025;-56
2021/01/02 13:38:15;;;;;;;8.05;4.20;;;;;;;;;;5060260;28;20020;-55
2021/01/02 13:40:41;;;;;;;6.78;4.90;;;;;;;;;;5059018;28;20170;-55
2021/01/02 13:43:07;;;;;;;5.88;4.50;;;;;;;;;;5072588;28;20428;-53
2021/01/02 13:45:33;;;;;;;10.38;5.03;;;;;;;;;;5079027;28;20044;-54
2021/01/02 13:47:59;;;;;;;6.35;4.53;;;;;;;;;;5066586;28;20499;-55
2021/01/02 13:50:26;;;;;;;8.98;6.20;;;;;;;;;;5066195;28;20132;-60
2021/01/02 13:52:52;;;;;;;11.07;8.18;;;;;;;;;;5065234;28;20055;-60
2021/01/02 13:55:18;;;;;;;10.55;8.80;;;;;;;;;;5064809;28;20499;-60
2021/01/02 13:57:44;;;;;;;10.48;7.95;;;;;;;;;;5069423;28;20103;-54
2021/01/02 14:00:11;;;;;;;9.38;7.03;;;;;;;;;;5062975;28;20129;-53
2021/01/02 14:02:37;;;;;;;8.77;5.88;;;;;;;;;;5069281;28;20487;-53
2021/01/02 14:05:03;;;;;;;10.93;7.43;;;;;;;;;;5063809;28;20028;-53
2021/01/02 14:07:30;;;;;;;9.60;7.05;;;;;;;;;;5065572;28;20132;-50
2021/01/02 14:09:56;;;;;;;11.98;9.13;;;;;;;;;;5072283;28;20070;-55
2021/01/02 14:12:22;;;;;;;17.33;11.43;;;;;;;;;;5070420;28;20085;-52
2021/01/02 14:14:49;;;;;;;40.25;22.42;;;;;;;;;;5066786;28;20029;-55
2021/01/02 14:17:16;;;;;;;30.90;18.80;;;;;;;;;;5065285;28;20036;-55
2021/01/02 14:19:42;;;;;;;35.42;21.75;;;;;;;;;;5072047;28;20486;-55
2021/01/02 14:22:08;;;;;;;32.72;19.77;;;;;;;;;;5071133;28;20032;-54
2021/01/02 14:24:34;;;;;;;34.00;22.55;;;;;;;;;;5071454;28;20041;-53
2021/01/02 14:27:01;;;;;;;48.63;31.30;;;;;;;;;;5059264;28;20372;-53